sensor_id;sensor_type;location;lat;lon;timestamp;pressure;altitude;pressure_sealevel;temperature;humidity
60099;BME280;62818;49.394;8.686;2023-05-09T00:00:27;100616.16;;;15.74;100.00
60099;BME280;62818;49.394;8.686;2023-05-09T00:01:28;100612.88;;;15.85;100.00
60099;BME280;62818;49.394;8.686;2023-05-09T00:02:30;100597.91;;;15.90;100.00
60099;BME280;62818;49.394;8.686;2023-05-09T00:03:33;100606.50;;;15.66;100.00
60099;BME280;62818;49.394;8.686;2023-05-09T00:04:34;100606.91;;;15.76;100.00
60099;BME280;62818;49.394;8.686;2023-05-09T00:05:34;100616.38;;;15.79;100.00
60099;BME280;62818;49.394;8.686;2023-05-09T00:06:35;100597.47;;;15.93;100.00
60099;BME280;62818;49.394;8.686;2023-05-09T00:07:36;100604.09;;;16.17;100.00
60099;BME280;62818;49.394;8.686;2023-05-09T00:08:37;100601.19;;;16.12;100.00
60099;BME280;62818;49.394;8.686;2023-05-09T00:09:37;100599.75;;;16.03;100.00
60099;BME280;62818;49.394;8.686;2023-05-09T00:10:38;100608.16;;;15.93;100.00
60099;BME280;62818;49.394;8.686;2023-05-09T00:11:38;100612.28;;;16.02;100.00
60099;BME280;62818;49.394;8.686;2023-05-09T00:12:39;100599.53;;;16.04;100.00
60099;BME280;62818;49.394;8.686;2023-05-09T00:13:40;100598.69;;;15.91;100.00
60099;BME280;62818;49.394;8.686;2023-05-09T00:14:43;100594.78;;;15.93;100.00
60099;BME280;62818;49.394;8.686;2023-05-09T00:15:44;100598.88;;;15.70;100.00
60099;BME280;62818;49.394;8.686;2023-05-09T00:16:45;100590.47;;;15.66;100.00
60099;BME280;62818;49.394;8.686;2023-05-09T00:17:46;100584.31;;;15.72;100.00
60099;BME280;62818;49.394;8.686;2023-05-09T00:18:47;100585.50;;;15.56;100.00
60099;BME280;62818;49.394;8.686;2023-05-09T00:19:50;100588.81;;;15.65;100.00
60099;BME280;62818;49.394;8.686;2023-05-09T00:20:52;100580.59;;;15.86;100.00
60099;BME280;62818;49.394;8.686;2023-05-09T00:21:53;100574.41;;;15.60;100.00
60099;BME280;62818;49.394;8.686;2023-05-09T00:22:53;100587.97;;;15.58;100.00
60099;BME280;62818;49.394;8.686;2023-05-09T00:23:54;100573.41;;;15.80;100.00
60099;BME280;62818;49.394;8.686;2023-05-09T00:24:55;100579.16;;;15.64;100.00
60099;BME280;62818;49.394;8.686;2023-05-09T00:25:55;100587.56;;;15.61;100.00
60099;BME280;62818;49.394;8.686;2023-05-09T00:26:56;100576.06;;;15.80;100.00
60099;BME280;62818;49.394;8.686;2023-05-09T00:27:56;100575.25;;;15.80;100.00
60099;BME280;62818;49.394;8.686;2023-05-09T00:28:57;100571.56;;;15.74;100.00
60099;BME280;62818;49.394;8.686;2023-05-09T00:29:57;100570.31;;;15.70;100.00
60099;BME280;62818;49.394;8.686;2023-05-09T00:30:58;100573.19;;;15.75;100.00
60099;BME280;62818;49.394;8.686;2023-05-09T00:31:58;100571.16;;;15.77;100.00
60099;BME280;62818;49.394;8.686;2023-05-09T00:32:59;100579.38;;;15.82;100.00
60099;BME280;62818;49.394;8.686;2023-05-09T00:34:00;100583.25;;;15.86;100.00
60099;BME280;62818;49.394;8.686;2023-05-09T00:35:00;100569.50;;;15.70;100.00
60099;BME280;62818;49.394;8.686;2023-05-09T00:36:01;100584.28;;;15.59;100.00
60099;BME280;62818;49.394;8.686;2023-05-09T00:37:01;100581.63;;;15.72;100.00
60099;BME280;62818;49.394;8.686;2023-05-09T00:38:02;100582.03;;;15.95;100.00
60099;BME280;62818;49.394;8.686;2023-05-09T00:39:02;100580.63;;;16.06;100.00
60099;BME280;62818;49.394;8.686;2023-05-09T00:40:04;100583.69;;;15.96;100.00
60099;BME280;62818;49.394;8.686;2023-05-09T00:41:06;100579.97;;;15.91;100.00
60099;BME280;62818;49.394;8.686;2023-05-09T00:42:07;100579.19;;;15.90;100.00
60099;BME280;62818;49.394;8.686;2023-05-09T00:43:07;100572.78;;;15.91;100.00
60099;BME280;62818;49.394;8.686;2023-05-09T00:44:08;100575.66;;;15.64;100.00
60099;BME280;62818;49.394;8.686;2023-05-09T00:45:09;100572.31;;;15.42;100.00
60099;BME280;62818;49.394;8.686;2023-05-09T00:46:10;100566.56;;;15.45;100.00
60099;BME280;62818;49.394;8.686;2023-05-09T00:47:10;100573.16;;;15.62;100.00
60099;BME280;62818;49.394;8.686;2023-05-09T00:48:11;100567.44;;;15.65;100.00
60099;BME280;62818;49.394;8.686;2023-05-09T00:49:12;100567.03;;;15.68;100.00
60099;BME280;62818;49.394;8.686;2023-05-09T00:50:12;100569.50;;;15.76;100.00
60099;BME280;62818;49.394;8.686;2023-05-09T00:51:14;100575.28;;;15.99;100.00
60099;BME280;62818;49.394;8.686;2023-05-09T00:52:15;100568.66;;;15.89;100.00
60099;BME280;62818;49.394;8.686;2023-05-09T00:53:16;100561.47;;;15.70;100.00
60099;BME280;62818;49.394;8.686;2023-05-09T00:54:19;100562.47;;;15.62;100.00
60099;BME280;62818;49.394;8.686;2023-05-09T00:55:19;100553.44;;;15.56;100.00
60099;BME280;62818;49.394;8.686;2023-05-09T00:56:20;100564.97;;;15.70;100.00
60099;BME280;62818;49.394;8.686;2023-05-09T00:57:21;100563.13;;;15.84;100.00
60099;BME280;62818;49.394;8.686;2023-05-09T00:58:22;100567.88;;;15.95;100.00
60099;BME280;62818;49.394;8.686;2023-05-09T00:59:23;100568.06;;;16.06;100.00
60099;BME280;62818;49.394;8.686;2023-05-09T01:00:23;100572.56;;;15.86;100.00
60099;BME280;62818;49.394;8.686;2023-05-09T01:01:24;100564.59;;;15.99;100.00
60099;BME280;62818;49.394;8.686;2023-05-09T01:02:25;100567.66;;;15.83;100.00
60099;BME280;62818;49.394;8.686;2023-05-09T01:03:26;100568.88;;;15.61;100.00
60099;BME280;62818;49.394;8.686;2023-05-09T01:04:27;100561.69;;;15.81;100.00
60099;BME280;62818;49.394;8.686;2023-05-09T01:05:51;100564.16;;;15.96;100.00
60099;BME280;62818;49.394;8.686;2023-05-09T01:07:12;100571.78;;;16.05;100.00
60099;BME280;62818;49.394;8.686;2023-05-09T01:08:33;100568.66;;;16.15;100.00
60099;BME280;62818;49.394;8.686;2023-05-09T01:09:53;100572.78;;;16.17;100.00
60099;BME280;62818;49.394;8.686;2023-05-09T01:11:08;100577.31;;;16.10;100.00
60099;BME280;62818;49.394;8.686;2023-05-09T01:12:28;100571.94;;;15.71;100.00
60099;BME280;62818;49.394;8.686;2023-05-09T01:13:44;100564.16;;;15.89;100.00
60099;BME280;62818;49.394;8.686;2023-05-09T01:15:30;100574.84;;;16.02;100.00
60099;BME280;62818;49.394;8.686;2023-05-09T01:17:50;100568.50;;;16.03;100.00
60099;BME280;62818;49.394;8.686;2023-05-09T01:22:05;100560.91;;;15.14;100.00
60099;BME280;62818;49.394;8.686;2023-05-09T01:23:15;100560.13;;;15.20;100.00
60099;BME280;62818;49.394;8.686;2023-05-09T01:25:04;100557.84;;;15.23;100.00
60099;BME280;62818;49.394;8.686;2023-05-09T01:28:12;100552.91;;;15.20;100.00
60099;BME280;62818;49.394;8.686;2023-05-09T01:30:36;100552.69;;;15.09;100.00
60099;BME280;62818;49.394;8.686;2023-05-09T01:31:40;100552.06;;;15.07;100.00
60099;BME280;62818;49.394;8.686;2023-05-09T01:32:45;100541.78;;;15.04;100.00
60099;BME280;62818;49.394;8.686;2023-05-09T01:33:55;100551.28;;;15.26;100.00
60099;BME280;62818;49.394;8.686;2023-05-09T01:35:00;100551.84;;;15.08;100.00
60099;BME280;62818;49.394;8.686;2023-05-09T01:36:07;100545.28;;;15.04;100.00
60099;BME280;62818;49.394;8.686;2023-05-09T01:37:14;100545.44;;;15.03;100.00
60099;BME280;62818;49.394;8.686;2023-05-09T01:38:21;100545.03;;;14.99;100.00
60099;BME280;62818;49.394;8.686;2023-05-09T01:39:25;100538.47;;;15.02;100.00
60099;BME280;62818;49.394;8.686;2023-05-09T01:40:29;100536.81;;;14.94;100.00
60099;BME280;62818;49.394;8.686;2023-05-09T01:41:35;100542.25;;;15.27;100.00
60099;BME280;62818;49.394;8.686;2023-05-09T01:42:47;100548.81;;;15.18;100.00
60099;BME280;62818;49.394;8.686;2023-05-09T01:43:52;100534.00;;;15.09;100.00
60099;BME280;62818;49.394;8.686;2023-05-09T01:44:57;100539.69;;;14.99;100.00
60099;BME280;62818;49.394;8.686;2023-05-09T01:45:58;100533.16;;;15.02;100.00
60099;BME280;62818;49.394;8.686;2023-05-09T01:47:01;100532.72;;;15.05;100.00
60099;BME280;62818;49.394;8.686;2023-05-09T01:48:04;100531.38;;;15.35;100.00
60099;BME280;62818;49.394;8.686;2023-05-09T01:49:07;100534.03;;;15.28;100.00
60099;BME280;62818;49.394;8.686;2023-05-09T01:50:10;100526.72;;;15.50;100.00
60099;BME280;62818;49.394;8.686;2023-05-09T01:51:13;100533.69;;;15.57;100.00
60099;BME280;62818;49.394;8.686;2023-05-09T01:52:16;100533.50;;;15.46;100.00
60099;BME280;62818;49.394;8.686;2023-05-09T01:53:21;100529.56;;;15.42;100.00
60099;BME280;62818;49.394;8.686;2023-05-09T01:54:24;100531.66;;;15.60;100.00
60099;BME280;62818;49.394;8.686;2023-05-09T01:55:29;100531.19;;;15.43;100.00
60099;BME280;62818;49.394;8.686;2023-05-09T01:56:33;100538.16;;;15.31;100.00
60099;BME280;62818;49.394;8.686;2023-05-09T01:57:36;100535.22;;;15.13;100.00
60099;BME280;62818;49.394;8.686;2023-05-09T01:58:40;100534.03;;;15.22;100.00
60099;BME280;62818;49.394;8.686;2023-05-09T01:59:43;100532.88;;;15.44;100.00
60099;BME280;62818;49.394;8.686;2023-05-09T02:00:46;100542.13;;;15.48;100.00
60099;BME280;62818;49.394;8.686;2023-05-09T02:01:48;100535.13;;;15.60;100.00
60099;BME280;62818;49.394;8.686;2023-05-09T02:02:49;100544.72;;;15.22;100.00
60099;BME280;62818;49.394;8.686;2023-05-09T02:03:53;100540.97;;;15.16;100.00
60099;BME280;62818;49.394;8.686;2023-05-09T02:04:54;100544.75;;;15.35;100.00
60099;BME280;62818;49.394;8.686;2023-05-09T02:05:56;100538.25;;;15.57;100.00
60099;BME280;62818;49.394;8.686;2023-05-09T02:06:58;100540.91;;;15.44;100.00
60099;BME280;62818;49.394;8.686;2023-05-09T02:08:01;100533.03;;;15.36;100.00
60099;BME280;62818;49.394;8.686;2023-05-09T02:09:01;100537.34;;;15.37;100.00
60099;BME280;62818;49.394;8.686;2023-05-09T02:10:02;100532.59;;;15.26;100.00
60099;BME280;62818;49.394;8.686;2023-05-09T02:11:06;100535.28;;;15.26;100.00
60099;BME280;62818;49.394;8.686;2023-05-09T02:12:06;100533.22;;;15.28;100.00
60099;BME280;62818;49.394;8.686;2023-05-09T02:13:07;100525.81;;;15.23;100.00
60099;BME280;62818;49.394;8.686;2023-05-09T02:14:07;100523.97;;;15.30;100.00
60099;BME280;62818;49.394;8.686;2023-05-09T02:15:08;100525.84;;;15.43;100.00
60099;BME280;62818;49.394;8.686;2023-05-09T02:16:09;100519.53;;;15.44;100.00
60099;BME280;62818;49.394;8.686;2023-05-09T02:17:11;100516.81;;;15.37;100.00
60099;BME280;62818;49.394;8.686;2023-05-09T02:18:16;100513.53;;;15.35;100.00
60099;BME280;62818;49.394;8.686;2023-05-09T02:19:16;100518.22;;;15.40;100.00
60099;BME280;62818;49.394;8.686;2023-05-09T02:20:17;100515.19;;;15.49;100.00
60099;BME280;62818;49.394;8.686;2023-05-09T02:21:17;100518.31;;;15.53;100.00
60099;BME280;62818;49.394;8.686;2023-05-09T02:22:18;100518.91;;;15.55;100.00
60099;BME280;62818;49.394;8.686;2023-05-09T02:23:19;100513.97;;;15.52;100.00
60099;BME280;62818;49.394;8.686;2023-05-09T02:24:20;100516.84;;;15.44;100.00
60099;BME280;62818;49.394;8.686;2023-05-09T02:25:20;100513.97;;;15.45;100.00
60099;BME280;62818;49.394;8.686;2023-05-09T02:26:21;100516.84;;;15.50;100.00
60099;BME280;62818;49.394;8.686;2023-05-09T02:27:22;100516.03;;;15.50;100.00
60099;BME280;62818;49.394;8.686;2023-05-09T02:28:23;100517.25;;;15.47;100.00
60099;BME280;62818;49.394;8.686;2023-05-09T02:29:29;100514.78;;;15.46;100.00
60099;BME280;62818;49.394;8.686;2023-05-09T02:30:41;100520.34;;;15.57;100.00
60099;BME280;62818;49.394;8.686;2023-05-09T02:31:45;100518.50;;;15.58;100.00
60099;BME280;62818;49.394;8.686;2023-05-09T02:32:50;100521.38;;;15.56;100.00
60099;BME280;62818;49.394;8.686;2023-05-09T02:34:03;100523.00;;;15.51;100.00
60099;BME280;62818;49.394;8.686;2023-05-09T02:35:06;100516.03;;;15.50;100.00
60099;BME280;62818;49.394;8.686;2023-05-09T02:36:09;100524.66;;;15.52;100.00
60099;BME280;62818;49.394;8.686;2023-05-09T02:37:12;100524.25;;;15.55;100.00
60099;BME280;62818;49.394;8.686;2023-05-09T02:38:13;100521.00;;;15.66;100.00
60099;BME280;62818;49.394;8.686;2023-05-09T02:39:14;100522.22;;;15.57;100.00
60099;BME280;62818;49.394;8.686;2023-05-09T02:40:15;100524.25;;;15.55;100.00
60099;BME280;62818;49.394;8.686;2023-05-09T02:41:18;100521.59;;;15.55;100.00
60099;BME280;62818;49.394;8.686;2023-05-09T02:42:23;100528.34;;;15.51;100.00
60099;BME280;62818;49.394;8.686;2023-05-09T02:43:24;100525.91;;;15.56;100.00
60099;BME280;62818;49.394;8.686;2023-05-09T02:44:25;100520.34;;;15.51;100.00
60099;BME280;62818;49.394;8.686;2023-05-09T02:45:25;100519.72;;;15.55;100.00
60099;BME280;62818;49.394;8.686;2023-05-09T02:46:26;100522.84;;;15.66;100.00
60099;BME280;62818;49.394;8.686;2023-05-09T02:47:26;100523.84;;;15.65;100.00
60099;BME280;62818;49.394;8.686;2023-05-09T02:48:27;100522.84;;;15.66;100.00
60099;BME280;62818;49.394;8.686;2023-05-09T02:49:27;100526.31;;;15.60;100.00
60099;BME280;62818;49.394;8.686;2023-05-09T02:50:28;100519.31;;;15.65;100.00
60099;BME280;62818;49.394;8.686;2023-05-09T02:51:28;100518.09;;;15.61;100.00
60099;BME280;62818;49.394;8.686;2023-05-09T02:52:29;100524.66;;;15.58;100.00
60099;BME280;62818;49.394;8.686;2023-05-09T02:53:30;100516.66;;;15.65;100.00
60099;BME280;62818;49.394;8.686;2023-05-09T02:54:30;100514.81;;;15.59;100.00
60099;BME280;62818;49.394;8.686;2023-05-09T02:55:31;100514.59;;;15.67;100.00
60099;BME280;62818;49.394;8.686;2023-05-09T02:56:31;100513.16;;;15.71;100.00
60099;BME280;62818;49.394;8.686;2023-05-09T02:57:32;100506.56;;;15.74;100.00
60099;BME280;62818;49.394;8.686;2023-05-09T02:58:33;100513.16;;;15.71;100.00
60099;BME280;62818;49.394;8.686;2023-05-09T02:59:33;100514.19;;;15.77;100.00
60099;BME280;62818;49.394;8.686;2023-05-09T03:00:33;100509.47;;;15.66;100.00
60099;BME280;62818;49.394;8.686;2023-05-09T03:01:34;100506.78;;;15.72;100.00
60099;BME280;62818;49.394;8.686;2023-05-09T03:02:36;100511.09;;;15.73;100.00
60099;BME280;62818;49.394;8.686;2023-05-09T03:03:37;100503.28;;;15.85;100.00
60099;BME280;62818;49.394;8.686;2023-05-09T03:04:37;100509.06;;;15.88;100.00
60099;BME280;62818;49.394;8.686;2023-05-09T03:05:38;100508.41;;;15.86;100.00
60099;BME280;62818;49.394;8.686;2023-05-09T03:06:38;100503.06;;;15.86;100.00
60099;BME280;62818;49.394;8.686;2023-05-09T03:07:39;100496.72;;;15.94;100.00
60099;BME280;62818;49.394;8.686;2023-05-09T03:08:39;100510.28;;;15.92;100.00
60099;BME280;62818;49.394;8.686;2023-05-09T03:09:39;100506.78;;;15.98;100.00
60099;BME280;62818;49.394;8.686;2023-05-09T03:10:40;100513.16;;;15.91;100.00
60099;BME280;62818;49.394;8.686;2023-05-09T03:11:41;100505.75;;;15.93;100.00
60099;BME280;62818;49.394;8.686;2023-05-09T03:12:41;100506.38;;;16.01;100.00
60099;BME280;62818;49.394;8.686;2023-05-09T03:13:42;100507.00;;;15.97;100.00
60099;BME280;62818;49.394;8.686;2023-05-09T03:14:43;100498.38;;;15.95;100.00
60099;BME280;62818;49.394;8.686;2023-05-09T03:15:43;100497.94;;;15.91;100.00
60099;BME280;62818;49.394;8.686;2023-05-09T03:16:44;100493.03;;;15.88;100.00
60099;BME280;62818;49.394;8.686;2023-05-09T03:17:44;100498.38;;;15.95;100.00
60099;BME280;62818;49.394;8.686;2023-05-09T03:18:45;100487.06;;;15.99;100.00
60099;BME280;62818;49.394;8.686;2023-05-09T03:19:46;100487.22;;;16.04;100.00
60099;BME280;62818;49.394;8.686;2023-05-09T03:20:47;100486.22;;;16.05;100.00
60099;BME280;62818;49.394;8.686;2023-05-09T03:21:48;100483.72;;;15.97;100.00
60099;BME280;62818;49.394;8.686;2023-05-09T03:22:48;100484.78;;;15.96;100.00
60099;BME280;62818;49.394;8.686;2023-05-09T03:23:49;100481.06;;;15.97;100.00
60099;BME280;62818;49.394;8.686;2023-05-09T03:24:49;100481.28;;;16.02;100.00
60099;BME280;62818;49.394;8.686;2023-05-09T03:25:50;100482.09;;;15.96;100.00
60099;BME280;62818;49.394;8.686;2023-05-09T03:26:50;100484.97;;;15.75;100.00
60099;BME280;62818;49.394;8.686;2023-05-09T03:27:51;100490.13;;;15.83;100.00
60099;BME280;62818;49.394;8.686;2023-05-09T03:28:51;100490.94;;;16.03;100.00
60099;BME280;62818;49.394;8.686;2023-05-09T03:29:52;100492.41;;;15.99;100.00
60099;BME280;62818;49.394;8.686;2023-05-09T03:30:52;100492.19;;;16.01;100.00
60099;BME280;62818;49.394;8.686;2023-05-09T03:31:53;100485.16;;;16.06;100.00
60099;BME280;62818;49.394;8.686;2023-05-09T03:32:53;100482.50;;;16.06;100.00
60099;BME280;62818;49.394;8.686;2023-05-09T03:33:54;100486.03;;;15.61;100.00
60099;BME280;62818;49.394;8.686;2023-05-09T03:34:55;100478.41;;;15.84;100.00
60099;BME280;62818;49.394;8.686;2023-05-09T03:35:56;100479.66;;;15.88;100.00
60099;BME280;62818;49.394;8.686;2023-05-09T03:36:57;100477.59;;;15.90;100.00
60099;BME280;62818;49.394;8.686;2023-05-09T03:37:58;100476.56;;;15.85;100.00
60099;BME280;62818;49.394;8.686;2023-05-09T03:38:59;100478.00;;;15.87;100.00
60099;BME280;62818;49.394;8.686;2023-05-09T03:39:59;100473.47;;;15.94;100.00
60099;BME280;62818;49.394;8.686;2023-05-09T03:40:59;100473.25;;;15.89;100.00
60099;BME280;62818;49.394;8.686;2023-05-09T03:42:00;100473.88;;;15.91;100.00
60099;BME280;62818;49.394;8.686;2023-05-09T03:43:00;100478.22;;;15.79;100.00
60099;BME280;62818;49.394;8.686;2023-05-09T03:44:04;100478.41;;;15.65;100.00
60099;BME280;62818;49.394;8.686;2023-05-09T03:45:05;100472.88;;;15.46;100.00
60099;BME280;62818;49.394;8.686;2023-05-09T03:46:06;100479.47;;;15.64;100.00
60099;BME280;62818;49.394;8.686;2023-05-09T03:47:06;100473.28;;;15.70;100.00
60099;BME280;62818;49.394;8.686;2023-05-09T03:48:07;100477.59;;;15.57;100.00
60099;BME280;62818;49.394;8.686;2023-05-09T03:49:08;100474.13;;;15.50;100.00
60099;BME280;62818;49.394;8.686;2023-05-09T03:50:09;100472.06;;;15.72;100.00
60099;BME280;62818;49.394;8.686;2023-05-09T03:51:10;100475.09;;;15.89;100.00
60099;BME280;62818;49.394;8.686;2023-05-09T03:52:10;100478.63;;;15.76;100.00
60099;BME280;62818;49.394;8.686;2023-05-09T03:53:11;100481.50;;;15.88;100.00
60099;BME280;62818;49.394;8.686;2023-05-09T03:54:11;100480.28;;;15.64;100.00
60099;BME280;62818;49.394;8.686;2023-05-09T03:55:11;100484.59;;;15.52;100.00
60099;BME280;62818;49.394;8.686;2023-05-09T03:56:13;100483.34;;;15.61;100.00
60099;BME280;62818;49.394;8.686;2023-05-09T03:57:13;100478.84;;;15.81;100.00
60099;BME280;62818;49.394;8.686;2023-05-09T03:58:14;100486.00;;;16.00;100.00
60099;BME280;62818;49.394;8.686;2023-05-09T03:59:14;100488.91;;;15.79;100.00
60099;BME280;62818;49.394;8.686;2023-05-09T04:00:15;100478.41;;;15.84;100.00
60099;BME280;62818;49.394;8.686;2023-05-09T04:01:16;100472.44;;;15.89;100.00
60099;BME280;62818;49.394;8.686;2023-05-09T04:02:16;100474.50;;;15.54;100.00
60099;BME280;62818;49.394;8.686;2023-05-09T04:03:17;100477.38;;;15.85;100.00
60099;BME280;62818;49.394;8.686;2023-05-09T04:04:17;100464.00;;;15.98;100.00
60099;BME280;62818;49.394;8.686;2023-05-09T04:05:18;100470.00;;;15.81;100.00
60099;BME280;62818;49.394;8.686;2023-05-09T04:06:19;100466.69;;;15.98;100.00
60099;BME280;62818;49.394;8.686;2023-05-09T04:07:19;100472.22;;;16.10;100.00
60099;BME280;62818;49.394;8.686;2023-05-09T04:08:20;100473.41;;;16.20;100.00
60099;BME280;62818;49.394;8.686;2023-05-09T04:09:21;100477.16;;;15.93;100.00
60099;BME280;62818;49.394;8.686;2023-05-09T04:10:22;100470.34;;;16.10;100.00
60099;BME280;62818;49.394;8.686;2023-05-09T04:11:24;100476.72;;;16.22;100.00
60099;BME280;62818;49.394;8.686;2023-05-09T04:12:24;100482.66;;;16.24;100.00
60099;BME280;62818;49.394;8.686;2023-05-09T04:13:25;100477.34;;;16.05;100.00
60099;BME280;62818;49.394;8.686;2023-05-09T04:14:27;100482.50;;;15.93;100.00
60099;BME280;62818;49.394;8.686;2023-05-09T04:15:27;100476.53;;;16.04;100.00
60099;BME280;62818;49.394;8.686;2023-05-09T04:16:29;100470.78;;;16.07;100.00
60099;BME280;62818;49.394;8.686;2023-05-09T04:17:29;100474.69;;;16.05;100.00
60099;BME280;62818;49.394;8.686;2023-05-09T04:18:30;100474.66;;;16.18;100.00
60099;BME280;62818;49.394;8.686;2023-05-09T04:19:32;100474.03;;;16.16;100.00
60099;BME280;62818;49.394;8.686;2023-05-09T04:20:32;100470.53;;;16.15;100.00
60099;BME280;62818;49.394;8.686;2023-05-09T04:21:33;100474.50;;;15.93;100.00
60099;BME280;62818;49.394;8.686;2023-05-09T04:22:34;100466.47;;;15.80;100.00
60099;BME280;62818;49.394;8.686;2023-05-09T04:23:35;100470.22;;;15.73;100.00
60099;BME280;62818;49.394;8.686;2023-05-09T04:24:35;100469.97;;;15.94;100.00
60099;BME280;62818;49.394;8.686;2023-05-09T04:25:36;100472.00;;;16.05;100.00
60099;BME280;62818;49.394;8.686;2023-05-09T04:26:36;100472.25;;;15.77;100.00
60099;BME280;62818;49.394;8.686;2023-05-09T04:27:38;100476.56;;;15.78;100.00
60099;BME280;62818;49.394;8.686;2023-05-09T04:28:38;100476.53;;;16.04;100.00
60099;BME280;62818;49.394;8.686;2023-05-09T04:29:39;100477.16;;;15.93;100.00
60099;BME280;62818;49.394;8.686;2023-05-09T04:30:40;100485.19;;;15.93;100.00
60099;BME280;62818;49.394;8.686;2023-05-09T04:31:40;100479.81;;;16.06;100.00
60099;BME280;62818;49.394;8.686;2023-05-09T04:32:41;100481.69;;;15.99;100.00
60099;BME280;62818;49.394;8.686;2023-05-09T04:33:45;100475.72;;;16.17;100.00
60099;BME280;62818;49.394;8.686;2023-05-09T04:34:45;100476.13;;;16.07;100.00
60099;BME280;62818;49.394;8.686;2023-05-09T04:35:46;100472.03;;;15.98;100.00
60099;BME280;62818;49.394;8.686;2023-05-09T04:36:47;100469.13;;;16.06;100.00
60099;BME280;62818;49.394;8.686;2023-05-09T04:37:48;100469.13;;;16.06;100.00
60099;BME280;62818;49.394;8.686;2023-05-09T04:38:49;100478.38;;;15.97;100.00
60099;BME280;62818;49.394;8.686;2023-05-09T04:39:49;100470.56;;;16.02;100.00
60099;BME280;62818;49.394;8.686;2023-05-09T04:40:50;100467.53;;;15.92;100.00
60099;BME280;62818;49.394;8.686;2023-05-09T04:41:50;100476.97;;;16.01;100.00
60099;BME280;62818;49.394;8.686;2023-05-09T04:42:51;100484.16;;;16.07;100.00
60099;BME280;62818;49.394;8.686;2023-05-09T04:43:52;100473.66;;;15.86;100.00
60099;BME280;62818;49.394;8.686;2023-05-09T04:44:53;100480.66;;;16.00;100.00
60099;BME280;62818;49.394;8.686;2023-05-09T04:45:53;100477.00;;;15.88;100.00
60099;BME280;62818;49.394;8.686;2023-05-09T04:46:53;100472.06;;;15.79;100.00
60099;BME280;62818;49.394;8.686;2023-05-09T04:47:54;100468.75;;;15.96;100.00
60099;BME280;62818;49.394;8.686;2023-05-09T04:48:55;100476.34;;;16.12;100.00
60099;BME280;62818;49.394;8.686;2023-05-09T04:49:56;100472.38;;;16.21;100.00
60099;BME280;62818;49.394;8.686;2023-05-09T04:50:56;100470.59;;;15.89;100.00
60099;BME280;62818;49.394;8.686;2023-05-09T04:51:57;100475.34;;;15.81;100.00
60099;BME280;62818;49.394;8.686;2023-05-09T04:52:57;100468.75;;;15.70;100.00
60099;BME280;62818;49.394;8.686;2023-05-09T04:53:58;100472.84;;;15.99;100.00
60099;BME280;62818;49.394;8.686;2023-05-09T04:54:58;100467.06;;;16.08;100.00
60099;BME280;62818;49.394;8.686;2023-05-09T04:55:59;100469.09;;;16.13;100.00
60099;BME280;62818;49.394;8.686;2023-05-09T04:57:00;100463.16;;;16.11;100.00
60099;BME280;62818;49.394;8.686;2023-05-09T04:58:01;100470.78;;;16.07;100.00
60099;BME280;62818;49.394;8.686;2023-05-09T04:59:01;100470.13;;;16.25;100.00
60099;BME280;62818;49.394;8.686;2023-05-09T05:00:02;100470.72;;;16.33;100.00
60099;BME280;62818;49.394;8.686;2023-05-09T05:01:06;100467.84;;;16.28;100.00
60099;BME280;62818;49.394;8.686;2023-05-09T05:02:06;100469.50;;;16.29;100.00
60099;BME280;62818;49.394;8.686;2023-05-09T05:03:07;100468.44;;;16.30;100.00
60099;BME280;62818;49.394;8.686;2023-05-09T05:04:07;100466.22;;;16.27;100.00
60099;BME280;62818;49.394;8.686;2023-05-09T05:05:08;100466.66;;;16.11;100.00
60099;BME280;62818;49.394;8.686;2023-05-09T05:06:08;100469.09;;;16.19;100.00
60099;BME280;62818;49.394;8.686;2023-05-09T05:07:09;100462.88;;;16.39;100.00
60099;BME280;62818;49.394;8.686;2023-05-09T05:08:09;100468.66;;;16.29;100.00
60099;BME280;62818;49.394;8.686;2023-05-09T05:09:10;100464.56;;;16.20;100.00
60099;BME280;62818;49.394;8.686;2023-05-09T05:10:10;100464.59;;;16.13;100.00
60099;BME280;62818;49.394;8.686;2023-05-09T05:11:11;100466.63;;;16.18;100.00
60099;BME280;62818;49.394;8.686;2023-05-09T05:12:12;100467.06;;;16.08;100.00
60099;BME280;62818;49.394;8.686;2023-05-09T05:13:13;100467.06;;;16.08;100.00
60099;BME280;62818;49.394;8.686;2023-05-09T05:14:13;100464.63;;;16.00;100.00
60099;BME280;62818;49.394;8.686;2023-05-09T05:15:14;100463.41;;;15.96;100.00
60099;BME280;62818;49.394;8.686;2023-05-09T05:16:15;100455.97;;;15.98;100.00
60099;BME280;62818;49.394;8.686;2023-05-09T05:17:15;100461.72;;;15.95;100.00
60099;BME280;62818;49.394;8.686;2023-05-09T05:18:17;100458.03;;;16.09;100.00
60099;BME280;62818;49.394;8.686;2023-05-09T05:19:17;100460.69;;;16.09;100.00
60099;BME280;62818;49.394;8.686;2023-05-09T05:20:18;100452.91;;;16.01;100.00
60099;BME280;62818;49.394;8.686;2023-05-09T05:21:18;100462.56;;;16.02;100.00
60099;BME280;62818;49.394;8.686;2023-05-09T05:22:19;100454.72;;;16.07;100.00
60099;BME280;62818;49.394;8.686;2023-05-09T05:23:19;100453.09;;;16.00;100.00
60099;BME280;62818;49.394;8.686;2023-05-09T05:24:20;100453.91;;;16.07;100.00
60099;BME280;62818;49.394;8.686;2023-05-09T05:25:20;100455.13;;;16.04;100.00
60099;BME280;62818;49.394;8.686;2023-05-09T05:26:21;100460.31;;;15.99;100.00
60099;BME280;62818;49.394;8.686;2023-05-09T05:27:21;100450.66;;;15.92;100.00
60099;BME280;62818;49.394;8.686;2023-05-09T05:28:22;100456.81;;;15.92;100.00